Latest Weather Observations for Frankston (Ballam Park)

IDV60801

Issued at 10:52 pm EST Wednesday 14 April 2021 (issued every 10 minutes, with the page automatically refreshed every 10 minutes)

About weather observations | Map of weather stations | Latest weather observations for VIC | Other Formats
Station Details ID: 086388 Name: FRANKSTON (BALLAM PARK) Lat: -38.15 Lon: 145.16 Height: 58.47 m
Data from the previous 72 hours. | See also: Recent months at Frankston (Ballam Park)
Date/Time
EST
Temp
°C
App
Temp
°C
Dew
Point
°C
Rel
Hum
%
Delta-T
°C
Wind Press
QNH
hPa
Press
MSL
hPa
Rain since
9am
mm
Dir  Spd
km/h
Gust
km/h
Spd
kts
Gust
kts
14/10:30pm 14.4 12.2 9.2 71 2.7 WNW 11 22 6 12 1014.8 1014.7 0.0
14/10:00pm 14.4 12.2 9.4 72 2.6 WNW 11 20 6 11 1014.8 1014.7 0.0
14/09:30pm 14.7 12.7 10.1 74 2.4 WNW 11 20 6 11 1014.7 1014.6 0.0
14/09:00pm 14.4 11.9 9.8 74 2.4 WNW 13 24 7 13 1014.5 1014.4 0.0
14/08:30pm 14.8 13.0 9.6 71 2.7 WNW 9 15 5 8 1014.4 1014.3 0.0
14/08:00pm 15.1 12.6 9.7 70 2.8 W 13 24 7 13 1014.3 1014.2 0.0
14/07:30pm 15.5 12.9 9.4 67 3.2 W 13 30 7 16 1013.9 1013.8 0.0
14/07:00pm 16.0 13.1 9.7 66 3.3 W 15 24 8 13 1013.5 1013.4 0.0
14/06:30pm 16.2 14.1 9.6 65 3.4 W 11 22 6 12 1013.1 1013.0 0.0
14/06:00pm 16.4 14.3 9.8 65 3.5 W 11 20 6 11 1012.7 1012.6 0.0
14/05:30pm 17.0 14.9 9.9 63 3.7 W 11 24 6 13 1012.2 1012.1 0.0
14/05:00pm 16.8 15.6 11.5 71 2.9 WNW 9 17 5 9 1011.8 1011.7 0.0
14/04:30pm 16.6 16.1 12.0 74 2.5 W 6 13 3 7 1011.5 1011.4 0.0
14/04:00pm 17.7 16.3 10.8 64 3.7 W 9 19 5 10 1011.2 1011.1 0.0
14/03:30pm 18.3 15.2 10.2 59 4.3 WNW 17 30 9 16 1010.8 1010.7 0.0
14/03:00pm 18.0 14.8 9.9 59 4.3 WNW 17 30 9 16 1010.6 1010.5 0.0
14/02:30pm 17.7 15.2 11.0 65 3.6 W 15 30 8 16 1010.5 1010.4 0.0
14/02:00pm 18.9 15.5 10.7 59 4.4 NW 19 33 10 18 1009.9 1009.8 0.0
14/01:30pm 19.3 15.9 10.6 57 4.7 NW 19 37 10 20 1009.8 1009.7 0.0
14/01:00pm 19.8 16.2 10.0 53 5.3 WNW 19 32 10 17 1010.2 1010.1 0.0
14/12:30pm 18.9 16.0 9.7 55 4.9 WNW 15 24 8 13 1010.3 1010.2 0.0
14/12:00pm 19.7 16.3 10.7 56 4.9 WNW 19 32 10 17 1010.6 1010.5 0.0
14/11:30am 18.3 15.8 10.9 62 4.0 WNW 15 28 8 15 1010.6 1010.5 0.0
14/11:00am 17.5 14.3 9.9 61 4.0 WNW 17 33 9 18 1010.6 1010.5 0.0
14/10:30am 17.7 14.0 9.6 59 4.3 WNW 19 32 10 17 1010.4 1010.3 0.0
14/10:00am 18.2 14.3 9.3 56 4.7 NW 20 35 11 19 1010.2 1010.1 0.0
14/09:30am 17.6 14.4 8.5 55 4.7 NW 15 28 8 15 1010.3 1010.2 0.0
14/09:00am 17.3 13.2 8.7 57 4.4 NW 20 33 11 18 1010.1 1010.0 0.0
14/08:30am 16.8 13.6 8.5 58 4.3 NW 15 26 8 14 1009.8 1009.7 0.0
14/08:00am - - - - - NW 17 32 9 17 1009.5 1009.4 0.0
14/07:30am - - - - - WNW 17 28 9 15 1008.9 1008.9 0.0
14/07:00am - - - - - WNW 19 32 10 17 1008.6 1008.6 0.0
14/06:30am - - - - - WNW 22 43 12 23 1008.3 1008.3 0.0
14/06:00am - - - - - W 20 35 11 19 1008.0 1008.0 0.0
14/05:30am - - - - - WNW 17 32 9 17 1007.4 1007.4 0.0
14/05:00am - - - - - N 9 15 5 8 1006.4 1006.4 0.0
14/04:30am - - - - - N 15 26 8 14 1006.3 1006.3 0.0
14/04:00am - - - - - N 17 28 9 15 1006.3 1006.3 0.0
14/03:30am 18.3 13.2 4.1 39 6.7 NNW 20 32 11 17 1006.5 1006.5 0.0
14/03:00am 19.0 13.0 3.2 35 7.4 NNW 24 41 13 22 1006.7 1006.7 0.0
14/02:30am 19.1 13.5 3.7 36 7.3 NNW 22 41 12 22 1007.0 1007.0 0.0
14/02:00am 18.9 13.9 3.5 36 7.3 NNW 19 35 10 19 1006.9 1006.9 0.0
14/01:30am 19.1 13.1 3.3 35 7.4 NNW 24 43 13 23 1007.0 1007.0 0.0
14/01:04am 19.7 12.9 3.0 33 7.8 NNW 28 46 15 25 1006.9 1006.9 0.0
14/01:00am 19.6 13.1 2.9 33 7.8 NNW 26 43 14 23 1007.1 1007.1 0.0
14/12:30am 19.7 13.6 2.6 32 8.0 NNW 24 48 13 26 1007.5 1007.5 0.0
14/12:24am 19.8 12.9 2.6 32 8.0 NNW 28 50 15 27 1007.5 1007.5 0.0
14/12:00am 19.7 14.4 3.0 33 7.9 NNW 20 41 11 22 1007.8 1007.8 0.0
 
Date/Time
EST
Temp
°C
App
Temp
°C
Dew
Point
°C
Rel
Hum
%
Delta-T
°C
Wind Press
QNH
hPa
Press
MSL
hPa
Rain since
9am
mm
Dir  Spd
km/h
Gust
km/h
Spd
kts
Gust
kts
13/11:30pm 18.6 13.8 4.4 39 6.8 NNW 19 33 10 18 1008.7 1008.7 0.0
13/11:00pm 17.7 14.6 5.6 45 5.9 NNW 11 19 6 10 1009.0 1009.0 0.0
13/10:30pm 17.8 14.0 5.7 45 5.9 NNW 15 20 8 11 1009.5 1009.4 0.0
13/10:00pm 18.1 13.8 5.3 43 6.2 NNW 17 24 9 13 1010.1 1010.0 0.0
13/09:30pm 18.0 13.4 5.6 44 6.0 NNW 19 30 10 16 1009.8 1009.7 0.0
13/09:00pm 17.7 13.9 5.9 46 5.8 NNW 15 26 8 14 1009.5 1009.4 0.0
13/08:30pm 17.6 13.9 6.2 47 5.6 N 15 28 8 15 1009.9 1009.8 0.0
13/08:00pm 17.4 13.7 6.3 48 5.5 N 15 24 8 13 1009.7 1009.6 0.0
13/07:30pm 17.6 13.8 5.9 46 5.7 N 15 32 8 17 1009.7 1009.6 0.0
13/07:00pm 17.9 14.1 5.8 45 5.9 N 15 30 8 16 1010.3 1010.2 0.0
13/06:30pm 17.7 13.9 5.9 46 5.8 N 15 26 8 14 1010.3 1010.2 0.0
13/06:00pm 17.4 13.7 6.3 48 5.5 N 15 24 8 13 1010.5 1010.4 0.0
13/05:30pm 17.4 14.1 6.6 49 5.4 N 13 24 7 13 1010.6 1010.5 0.0
13/05:00pm 17.6 14.4 6.8 49 5.4 N 13 22 7 12 1010.9 1010.8 0.0
13/04:30pm 17.9 14.6 6.4 47 5.7 N 13 22 7 12 1011.1 1011.0 0.0
13/04:00pm 17.9 13.4 6.1 46 5.8 N 19 35 10 19 1011.1 1011.0 0.0
13/03:30pm 18.2 14.6 6.7 47 5.7 N 15 26 8 14 1011.2 1011.1 0.0
13/03:00pm 18.5 15.5 7.6 49 5.6 N 13 24 7 13 1011.6 1011.5 0.0
13/02:30pm 17.7 13.3 6.6 48 5.5 N 19 35 10 19 1012.3 1012.2 0.0
13/02:00pm 17.0 13.1 7.1 52 4.9 N 17 30 9 16 1013.0 1012.9 0.0
13/01:30pm 17.1 13.7 7.5 53 4.8 N 15 32 8 17 1013.7 1013.6 0.0
13/01:00pm 16.4 12.8 6.8 53 4.7 N 15 30 8 16 1014.4 1014.3 0.0
13/12:30pm 16.2 12.3 6.9 54 4.6 N 17 28 9 15 1015.0 1014.9 0.0
13/12:00pm 16.0 12.5 7.2 56 4.4 N 15 24 8 13 1015.9 1015.8 0.0
13/11:30am 15.4 13.7 8.4 63 3.5 N 7 13 4 7 1016.5 1016.4 0.0
13/11:00am 14.5 12.3 7.8 64 3.3 N 9 17 5 9 1016.8 1016.7 0.0
13/10:30am 13.9 11.7 7.9 67 3.0 N 9 15 5 8 1017.6 1017.5 0.0
13/10:00am 13.8 12.0 7.8 67 3.0 N 7 15 4 8 1017.8 1017.7 0.0
13/09:30am 13.0 11.5 8.5 74 2.2 N 6 9 3 5 1018.1 1018.0 0.0
13/09:00am 12.0 10.4 7.9 76 2.0 N 6 13 3 7 1018.4 1018.3 0.0
13/08:30am 11.3 10.1 8.0 80 1.6 NNE 4 7 2 4 1018.4 1018.3 0.0
13/08:00am 10.3 9.4 7.7 84 1.2 NE 2 6 1 3 1018.4 1018.3 0.0
13/07:30am 8.9 8.3 7.4 90 0.7 CALM 0 0 0 0 1018.2 1018.1 0.0
13/07:00am 7.9 7.2 6.8 93 0.5 CALM 0 0 0 0 1018.4 1018.3 0.0
13/06:30am 7.5 6.7 6.4 93 0.5 CALM 0 0 0 0 1018.6 1018.5 0.0
13/06:00am 6.9 5.9 5.8 93 0.5 CALM 0 0 0 0 1018.7 1018.6 0.0
13/05:30am 6.9 5.9 5.8 93 0.5 CALM 0 0 0 0 1018.9 1018.8 0.0
13/05:00am 7.3 6.4 6.2 93 0.5 CALM 0 0 0 0 1018.8 1018.7 0.0
13/04:30am 7.6 6.8 6.5 93 0.5 CALM 0 0 0 0 1018.9 1018.8 0.0
13/04:00am 7.1 6.2 5.9 92 0.5 CALM 0 0 0 0 1019.0 1018.9 0.0
13/03:30am 7.6 6.8 6.4 92 0.5 CALM 0 0 0 0 1019.2 1019.2 0.0
13/03:00am 7.6 6.7 6.2 91 0.6 CALM 0 0 0 0 1019.4 1019.4 0.0
13/02:30am 8.5 7.8 6.8 89 0.8 CALM 0 0 0 0 1019.6 1019.6 0.0
13/02:00am 8.8 8.1 6.9 88 0.9 CALM 0 2 0 1 1019.8 1019.8 0.0
13/01:30am 9.2 8.2 7.3 88 0.9 ESE 2 4 1 2 1020.0 1020.0 0.0
13/01:00am 9.0 8.4 7.5 90 0.7 CALM 0 0 0 0 1020.2 1020.2 0.0
13/12:30am 9.2 7.9 7.6 90 0.8 ESE 4 4 2 2 1020.3 1020.3 0.0
13/12:00am 9.2 8.6 7.6 90 0.8 CALM 0 0 0 0 1020.6 1020.6 0.0
 
Date/Time
EST
Temp
°C
App
Temp
°C
Dew
Point
°C
Rel
Hum
%
Delta-T
°C
Wind Press
QNH
hPa
Press
MSL
hPa
Rain since
9am
mm
Dir  Spd
km/h
Gust
km/h
Spd
kts
Gust
kts
12/11:30pm 9.2 8.6 7.5 89 0.8 CALM 0 0 0 0 1021.0 1021.0 0.0
12/11:00pm 9.4 8.8 7.5 88 0.9 CALM 0 0 0 0 1021.4 1021.4 0.0
12/10:30pm 10.0 9.5 7.9 87 1.0 CALM 0 0 0 0 1021.6 1021.6 0.0
12/10:00pm 10.1 9.6 7.9 86 1.1 CALM 0 0 0 0 1021.9 1021.9 0.0
12/09:30pm 10.5 10.0 7.7 83 1.4 CALM 0 0 0 0 1022.2 1022.2 0.0
12/09:00pm 10.8 10.3 8.0 83 1.4 CALM 0 0 0 0 1022.3 1022.3 0.0
12/08:30pm 11.2 10.8 8.2 82 1.5 CALM 0 0 0 0 1022.4 1022.4 0.0
12/08:00pm 11.5 11.1 8.4 81 1.5 CALM 0 0 0 0 1022.2 1022.2 0.0
12/07:30pm 11.6 11.3 8.5 81 1.5 CALM 0 0 0 0 1022.1 1022.1 0.0
12/07:00pm 11.8 11.0 8.3 79 1.7 SSE 2 4 1 2 1021.7 1021.7 0.0
12/06:30pm 12.2 11.8 8.1 76 2.0 CALM 0 4 0 2 1021.3 1021.3 0.0
12/06:00pm 13.5 12.4 8.4 71 2.5 S 4 6 2 3 1021.3 1021.3 0.0
12/05:30pm 14.5 13.3 8.0 65 3.2 SSW 4 7 2 4 1021.1 1021.1 0.0
12/05:00pm 15.2 14.1 8.4 64 3.4 S 4 7 2 4 1020.9 1020.9 0.0
12/04:30pm 15.0 13.9 8.5 65 3.3 SSW 4 9 2 5 1021.1 1021.1 0.0
12/04:00pm 15.2 14.5 8.4 64 3.4 WSW 2 9 1 5 1021.2 1021.2 0.0
12/03:30pm 15.4 14.7 8.4 63 3.5 WSW 2 6 1 3 1021.3 1021.3 0.0
12/03:00pm 16.2 15.2 8.9 62 3.7 SW 4 11 2 6 1021.3 1021.3 0.0
12/02:30pm 16.3 14.8 8.3 59 4.1 SSW 6 13 3 7 1021.4 1021.4 0.0
12/02:00pm 15.3 14.7 9.0 66 3.2 NNE 2 4 1 2 1021.3 1021.3 0.0
12/01:30pm 16.2 15.0 9.6 65 3.4 ESE 6 9 3 5 1021.5 1021.5 0.0
12/01:00pm 15.6 13.9 7.6 59 4.0 SSW 6 13 3 7 1021.7 1021.7 0.0
12/12:30pm 15.5 14.4 8.3 62 3.6 SSW 4 13 2 7 1021.9 1021.9 0.0
12/12:00pm 15.0 13.6 8.7 66 3.2 SW 6 11 3 6 1022.3 1022.3 0.0
12/11:30am 16.4 14.8 8.6 60 4.0 S 7 13 4 7 1022.5 1022.5 0.0
12/11:00am 16.2 14.6 8.7 61 3.8 S 7 17 4 9 1022.7 1022.7 0.0
12/10:30am 15.1 13.2 9.2 68 3.0 S 9 15 5 8 1022.9 1022.9 0.0
12/10:00am 14.7 13.5 9.7 72 2.6 SSW 6 13 3 7 1022.9 1022.9 0.0
12/09:30am 13.9 12.4 9.1 73 2.4 SSW 7 11 4 6 1023.1 1023.1 0.0
12/09:00am 12.4 10.9 9.2 81 1.6 SSE 7 20 4 11 1023.3 1023.3 3.0
12/08:30am 12.9 11.5 8.8 76 2.1 SSW 6 9 3 5 1022.9 1022.9 3.0
12/08:00am 11.4 10.8 8.8 84 1.3 S 2 7 1 4 1022.7 1022.7 3.0
12/07:30am 10.8 9.3 8.6 86 1.1 S 6 7 3 4 1022.4 1022.4 3.0
12/07:00am 10.2 9.8 8.1 87 1.0 CALM 0 0 0 0 1022.0 1022.0 2.8
12/06:30am 9.3 8.8 7.7 90 0.8 CALM 0 4 0 2 1021.7 1021.7 2.8
12/06:00am 8.6 7.8 6.7 88 0.9 CALM 0 0 0 0 1021.6 1021.6 2.8
12/05:30am 9.7 9.1 7.3 85 1.1 CALM 0 2 0 1 1021.2 1021.2 2.8
12/05:00am 10.2 9.4 8.0 86 1.1 SE 2 11 1 6 1021.1 1021.1 2.8
12/04:30am 9.0 8.3 7.1 88 0.9 CALM 0 2 0 1 1020.8 1020.8 2.8
12/04:00am 9.4 8.7 7.0 85 1.1 CALM 0 0 0 0 1020.7 1020.7 2.8
12/03:30am 10.7 9.3 7.2 79 1.7 SSW 4 7 2 4 1020.4 1020.4 2.8
12/03:00am 10.4 9.2 6.4 76 1.9 SSW 2 4 1 2 1020.5 1020.5 2.8
12/02:30am 10.7 9.8 6.1 73 2.1 CALM 0 0 0 0 1020.4 1020.4 2.8
12/02:00am 11.3 9.2 6.0 70 2.5 SSW 6 9 3 5 1020.6 1020.6 2.8
12/01:30am 9.5 8.6 6.2 80 1.5 CALM 0 0 0 0 1020.5 1020.5 2.8
12/01:00am 10.1 8.7 5.5 73 2.1 SW 2 6 1 3 1020.5 1020.5 2.8
12/12:30am 10.0 8.7 5.8 75 1.9 SW 2 6 1 3 1020.6 1020.6 2.8
12/12:00am 11.1 9.4 5.8 70 2.5 S 4 6 2 3 1020.5 1020.5 2.8
 
Date/Time
EST
Temp
°C
App
Temp
°C
Dew
Point
°C
Rel
Hum
%
Delta-T
°C
Wind Press
QNH
hPa
Press
MSL
hPa
Rain since
9am
mm
Dir  Spd
km/h
Gust
km/h
Spd
kts
Gust
kts
11/11:30pm 11.2 9.9 5.9 70 2.5 SSW 2 6 1 3 1020.6 1020.6 2.8
11/11:00pm 11.3 9.7 6.4 72 2.3 SSW 4 13 2 7 1020.4 1020.4 2.8

Other formats

Comma delimited format used in spreadsheet applications
http://www.bom.gov.au/fwo/IDV60801/IDV60801.94876.axf

JavaScript Object Notation format (JSON) in row-major order
http://www.bom.gov.au/fwo/IDV60801/IDV60801.94876.json

Data quality

Most of these data are generated automatically and are frequently updated. Quality checks on data are not normally performed. It is possible for incorrect values to appear. Refer to information at About Latest Weather Observations and please check the disclaimer before using these data.